sensor_id;sensor_type;location;lat;lon;timestamp;pressure;altitude;pressure_sealevel;temperature;humidity
43553;BME280;29153;42.696;23.218;2023-02-26T00:01:28;93252.22;;;12.50;57.27
43553;BME280;29153;42.696;23.218;2023-02-26T00:03:58;93243.64;;;12.53;58.00
43553;BME280;29153;42.696;23.218;2023-02-26T00:06:27;93250.73;;;12.55;58.01
43553;BME280;29153;42.696;23.218;2023-02-26T00:08:55;93250.14;;;12.49;58.02
43553;BME280;29153;42.696;23.218;2023-02-26T00:11:22;93236.67;;;12.54;57.01
43553;BME280;29153;42.696;23.218;2023-02-26T00:13:50;93238.40;;;12.50;57.76
43553;BME280;29153;42.696;23.218;2023-02-26T00:16:30;93241.30;;;12.51;58.14
43553;BME280;29153;42.696;23.218;2023-02-26T00:18:59;93243.95;;;12.51;58.37
43553;BME280;29153;42.696;23.218;2023-02-26T00:21:28;93236.22;;;12.52;58.42
43553;BME280;29153;42.696;23.218;2023-02-26T00:23:57;93231.38;;;12.46;57.76
43553;BME280;29153;42.696;23.218;2023-02-26T00:26:26;93216.94;;;12.49;57.94
43553;BME280;29153;42.696;23.218;2023-02-26T00:28:55;93220.85;;;12.43;58.28
43553;BME280;29153;42.696;23.218;2023-02-26T00:31:23;93222.94;;;12.52;56.27
43553;BME280;29153;42.696;23.218;2023-02-26T00:33:52;93206.67;;;12.54;57.73
43553;BME280;29153;42.696;23.218;2023-02-26T00:36:44;93207.95;;;12.48;57.31
43553;BME280;29153;42.696;23.218;2023-02-26T00:39:21;93198.68;;;12.39;57.62
43553;BME280;29153;42.696;23.218;2023-02-26T00:41:43;93198.68;;;12.39;57.62
43553;BME280;29153;42.696;23.218;2023-02-26T00:44:11;93193.27;;;12.42;57.23
43553;BME280;29153;42.696;23.218;2023-02-26T00:46:44;93188.70;;;12.36;57.61
43553;BME280;29153;42.696;23.218;2023-02-26T00:52:06;93190.03;;;12.36;57.24
43553;BME280;29153;42.696;23.218;2023-02-26T00:54:34;93205.96;;;12.36;56.94
43553;BME280;29153;42.696;23.218;2023-02-26T00:57:02;93202.14;;;12.31;57.01
43553;BME280;29153;42.696;23.218;2023-02-26T00:59:31;93201.20;;;12.36;56.13
43553;BME280;29153;42.696;23.218;2023-02-26T01:01:58;93190.09;;;12.33;56.42
43553;BME280;29153;42.696;23.218;2023-02-26T01:04:26;93197.76;;;12.35;55.96
43553;BME280;29153;42.696;23.218;2023-02-26T01:06:55;93209.70;;;12.35;55.36
43553;BME280;29153;42.696;23.218;2023-02-26T01:09:32;93200.95;;;12.35;55.35
43553;BME280;29153;42.696;23.218;2023-02-26T01:12:06;93194.59;;;12.42;55.34
43553;BME280;29153;42.696;23.218;2023-02-26T01:14:31;93192.89;;;12.37;55.52
43553;BME280;29153;42.696;23.218;2023-02-26T01:17:14;93174.55;;;12.38;55.13
43553;BME280;29153;42.696;23.218;2023-02-26T01:19:57;93187.13;;;12.35;55.11
43553;BME280;29153;42.696;23.218;2023-02-26T01:22:34;93181.59;;;12.34;54.36
43553;BME280;29153;42.696;23.218;2023-02-26T01:25:08;93178.69;;;12.33;54.61
43553;BME280;29153;42.696;23.218;2023-02-26T01:27:36;93172.39;;;12.31;54.96
43553;BME280;29153;42.696;23.218;2023-02-26T01:30:05;93167.38;;;12.30;54.64
43553;BME280;29153;42.696;23.218;2023-02-26T01:32:41;93162.48;;;12.26;54.78
43553;BME280;29153;42.696;23.218;2023-02-26T01:49:15;93164.87;;;12.33;53.25
43553;BME280;29153;42.696;23.218;2023-02-26T01:54:22;93159.02;;;12.34;53.20
43553;BME280;29153;42.696;23.218;2023-02-26T01:57:05;93151.59;;;12.33;52.68
43553;BME280;29153;42.696;23.218;2023-02-26T01:59:33;93137.47;;;12.36;52.20
43553;BME280;29153;42.696;23.218;2023-02-26T02:02:03;93143.46;;;12.39;51.96
43553;BME280;29153;42.696;23.218;2023-02-26T02:04:31;93114.80;;;12.38;52.09
43553;BME280;29153;42.696;23.218;2023-02-26T02:06:59;93115.75;;;12.33;52.45
43553;BME280;29153;42.696;23.218;2023-02-26T02:09:27;93118.81;;;12.29;52.32
43553;BME280;29153;42.696;23.218;2023-02-26T02:12:07;93099.75;;;12.36;52.02
43553;BME280;29153;42.696;23.218;2023-02-26T02:14:45;93098.89;;;12.29;52.00
43553;BME280;29153;42.696;23.218;2023-02-26T02:17:37;93091.03;;;12.27;51.14
43553;BME280;29153;42.696;23.218;2023-02-26T02:20:41;93091.03;;;12.27;51.14
43553;BME280;29153;42.696;23.218;2023-02-26T02:31:16;93080.08;;;12.28;51.27
43553;BME280;29153;42.696;23.218;2023-02-26T02:36:35;93088.41;;;12.33;51.51
43553;BME280;29153;42.696;23.218;2023-02-26T02:39:06;93068.13;;;12.14;51.29
43553;BME280;29153;42.696;23.218;2023-02-26T02:41:39;93076.47;;;12.33;50.72
43553;BME280;29153;42.696;23.218;2023-02-26T02:44:08;93109.34;;;12.35;50.16
43553;BME280;29153;42.696;23.218;2023-02-26T02:46:38;93099.51;;;12.35;50.51
43553;BME280;29153;42.696;23.218;2023-02-26T02:49:09;93098.11;;;12.29;50.66
43553;BME280;29153;42.696;23.218;2023-02-26T02:51:45;93104.30;;;12.27;50.71
43553;BME280;29153;42.696;23.218;2023-02-26T02:54:19;93104.30;;;12.27;50.71
43553;BME280;29153;42.696;23.218;2023-02-26T02:56:51;93106.96;;;12.27;50.84
43553;BME280;29153;42.696;23.218;2023-02-26T02:59:24;93103.97;;;12.28;50.83
43553;BME280;29153;42.696;23.218;2023-02-26T03:01:56;93100.23;;;12.29;49.84
43553;BME280;29153;42.696;23.218;2023-02-26T03:04:19;93109.14;;;12.25;50.73
43553;BME280;29153;42.696;23.218;2023-02-26T03:06:46;93098.66;;;12.28;49.50
43553;BME280;29153;42.696;23.218;2023-02-26T03:09:15;93108.59;;;12.25;49.93
43553;BME280;29153;42.696;23.218;2023-02-26T03:11:43;93119.69;;;12.27;49.67
43553;BME280;29153;42.696;23.218;2023-02-26T03:14:12;93156.92;;;12.25;49.48
43553;BME280;29153;42.696;23.218;2023-02-26T03:19:40;93103.42;;;12.29;48.35
43553;BME280;29153;42.696;23.218;2023-02-26T03:22:16;93103.42;;;12.29;48.35
43553;BME280;29153;42.696;23.218;2023-02-26T03:24:52;93126.91;;;12.33;48.75
43553;BME280;29153;42.696;23.218;2023-02-26T03:27:49;93121.20;;;12.37;48.69
43553;BME280;29153;42.696;23.218;2023-02-26T03:30:18;93116.53;;;12.34;48.60
43553;BME280;29153;42.696;23.218;2023-02-26T03:33:01;93125.99;;;12.29;48.79
43553;BME280;29153;42.696;23.218;2023-02-26T03:35:47;93114.11;;;12.35;48.57
43553;BME280;29153;42.696;23.218;2023-02-26T03:38:53;93115.30;;;12.31;48.87
43553;BME280;29153;42.696;23.218;2023-02-26T03:41:12;93127.73;;;12.25;49.88
43553;BME280;29153;42.696;23.218;2023-02-26T03:43:44;93117.20;;;12.22;50.10
43553;BME280;29153;42.696;23.218;2023-02-26T03:46:11;93108.10;;;12.09;51.08
43553;BME280;29153;42.696;23.218;2023-02-26T03:48:38;93108.10;;;12.09;51.08
43553;BME280;29153;42.696;23.218;2023-02-26T03:51:09;93107.86;;;12.08;51.88
43553;BME280;29153;42.696;23.218;2023-02-26T03:54:02;93103.65;;;12.07;52.13
43553;BME280;29153;42.696;23.218;2023-02-26T03:56:32;93085.95;;;12.05;52.13
43553;BME280;29153;42.696;23.218;2023-02-26T03:58:55;93093.75;;;12.10;51.84
43553;BME280;29153;42.696;23.218;2023-02-26T04:01:25;93103.89;;;12.08;51.92
43553;BME280;29153;42.696;23.218;2023-02-26T04:04:18;93102.94;;;12.12;51.85
43553;BME280;29153;42.696;23.218;2023-02-26T04:06:24;93100.28;;;12.12;51.73
43553;BME280;29153;42.696;23.218;2023-02-26T04:08:53;93105.55;;;12.06;52.11
43553;BME280;29153;42.696;23.218;2023-02-26T04:11:23;93099.66;;;12.07;51.79
43553;BME280;29153;42.696;23.218;2023-02-26T04:13:51;93104.91;;;12.09;51.84
43553;BME280;29153;42.696;23.218;2023-02-26T04:16:18;93094.84;;;12.09;51.83
43553;BME280;29153;42.696;23.218;2023-02-26T04:18:46;93093.75;;;12.10;52.02
43553;BME280;29153;42.696;23.218;2023-02-26T04:21:16;93045.44;;;11.78;52.27
43553;BME280;29153;42.696;23.218;2023-02-26T04:23:43;93084.15;;;12.03;52.58
43553;BME280;29153;42.696;23.218;2023-02-26T04:26:11;93051.17;;;11.98;52.64
43553;BME280;29153;42.696;23.218;2023-02-26T04:28:40;93069.11;;;12.01;51.92
43553;BME280;29153;42.696;23.218;2023-02-26T04:31:08;93074.25;;;12.06;51.69
43553;BME280;29153;42.696;23.218;2023-02-26T04:33:38;93067.20;;;12.10;51.59
43553;BME280;29153;42.696;23.218;2023-02-26T04:36:06;93070.95;;;12.09;51.44
43553;BME280;29153;42.696;23.218;2023-02-26T04:38:34;93054.61;;;12.13;51.00
43553;BME280;29153;42.696;23.218;2023-02-26T04:41:02;93062.48;;;12.15;51.24
43553;BME280;29153;42.696;23.218;2023-02-26T04:43:29;93062.48;;;12.15;51.24
43553;BME280;29153;42.696;23.218;2023-02-26T04:45:57;93049.92;;;12.18;51.12
43553;BME280;29153;42.696;23.218;2023-02-26T04:48:26;93045.80;;;12.15;51.23
43553;BME280;29153;42.696;23.218;2023-02-26T04:50:53;93053.70;;;12.09;51.09
43553;BME280;29153;42.696;23.218;2023-02-26T04:53:21;93038.92;;;12.14;51.15
43553;BME280;29153;42.696;23.218;2023-02-26T04:55:48;93042.36;;;12.14;50.88
43553;BME280;29153;42.696;23.218;2023-02-26T04:58:17;93051.24;;;12.18;50.52
43553;BME280;29153;42.696;23.218;2023-02-26T05:00:50;93027.56;;;12.19;50.88
43553;BME280;29153;42.696;23.218;2023-02-26T05:03:18;93031.00;;;12.20;51.13
43553;BME280;29153;42.696;23.218;2023-02-26T05:05:47;93037.63;;;12.20;50.65
43553;BME280;29153;42.696;23.218;2023-02-26T05:08:14;93029.84;;;12.23;50.66
43553;BME280;29153;42.696;23.218;2023-02-26T05:10:44;93039.44;;;12.22;49.74
43553;BME280;29153;42.696;23.218;2023-02-26T05:13:11;93026.53;;;12.26;49.78
43553;BME280;29153;42.696;23.218;2023-02-26T05:15:38;93021.64;;;12.22;50.23
43553;BME280;29153;42.696;23.218;2023-02-26T05:18:06;93016.40;;;12.20;49.81
43553;BME280;29153;42.696;23.218;2023-02-26T05:20:33;93013.06;;;12.17;50.65
43553;BME280;29153;42.696;23.218;2023-02-26T05:23:01;93017.15;;;12.14;49.60
43553;BME280;29153;42.696;23.218;2023-02-26T05:25:28;93020.17;;;12.19;50.06
43553;BME280;29153;42.696;23.218;2023-02-26T05:27:56;93023.00;;;12.14;49.89
43553;BME280;29153;42.696;23.218;2023-02-26T05:30:26;93006.60;;;12.12;50.08
43553;BME280;29153;42.696;23.218;2023-02-26T05:32:52;93004.42;;;12.14;48.77
43553;BME280;29153;42.696;23.218;2023-02-26T05:35:20;93015.30;;;12.21;48.75
43553;BME280;29153;42.696;23.218;2023-02-26T05:37:47;92986.78;;;12.24;48.89
43553;BME280;29153;42.696;23.218;2023-02-26T05:40:15;93010.61;;;12.26;48.12
43553;BME280;29153;42.696;23.218;2023-02-26T05:42:42;93000.66;;;12.29;48.37
43553;BME280;29153;42.696;23.218;2023-02-26T05:45:10;93024.25;;;12.31;48.34
43553;BME280;29153;42.696;23.218;2023-02-26T05:47:38;93020.53;;;12.38;48.42
43553;BME280;29153;42.696;23.218;2023-02-26T05:50:06;93028.23;;;12.31;47.73
43553;BME280;29153;42.696;23.218;2023-02-26T05:52:34;93034.22;;;12.34;47.63
43553;BME280;29153;42.696;23.218;2023-02-26T05:55:01;93032.53;;;12.44;46.74
43553;BME280;29153;42.696;23.218;2023-02-26T05:57:34;93032.80;;;12.51;46.32
43553;BME280;29153;42.696;23.218;2023-02-26T06:00:03;93032.80;;;12.51;46.32
43553;BME280;29153;42.696;23.218;2023-02-26T06:02:31;93028.03;;;12.51;45.92
43553;BME280;29153;42.696;23.218;2023-02-26T06:04:59;93038.19;;;12.63;45.70
43553;BME280;29153;42.696;23.218;2023-02-26T06:07:28;93044.97;;;12.67;44.99
43553;BME280;29153;42.696;23.218;2023-02-26T06:09:56;93047.67;;;12.73;44.89
43553;BME280;29153;42.696;23.218;2023-02-26T06:12:26;93040.88;;;12.84;43.89
43553;BME280;29153;42.696;23.218;2023-02-26T06:14:53;93051.93;;;13.01;44.08
43553;BME280;29153;42.696;23.218;2023-02-26T06:17:21;93038.84;;;13.10;43.34
43553;BME280;29153;42.696;23.218;2023-02-26T06:19:48;93054.30;;;13.23;42.73
43553;BME280;29153;42.696;23.218;2023-02-26T06:22:17;93052.03;;;13.34;42.44
43553;BME280;29153;42.696;23.218;2023-02-26T06:24:45;93042.97;;;13.41;42.29
43553;BME280;29153;42.696;23.218;2023-02-26T06:27:12;93047.55;;;13.52;42.14
43553;BME280;29153;42.696;23.218;2023-02-26T06:29:40;93070.66;;;13.60;41.40
43553;BME280;29153;42.696;23.218;2023-02-26T06:32:08;93063.15;;;13.68;41.63
43553;BME280;29153;42.696;23.218;2023-02-26T06:34:35;93059.73;;;13.80;40.61
43553;BME280;29153;42.696;23.218;2023-02-26T06:37:03;93059.73;;;13.80;40.61
43553;BME280;29153;42.696;23.218;2023-02-26T06:39:30;93047.23;;;13.93;40.38
43553;BME280;29153;42.696;23.218;2023-02-26T06:41:58;93055.02;;;13.98;40.51
43553;BME280;29153;42.696;23.218;2023-02-26T06:44:26;93044.38;;;13.98;40.75
43553;BME280;29153;42.696;23.218;2023-02-26T06:46:53;93021.09;;;14.07;39.58
43553;BME280;29153;42.696;23.218;2023-02-26T06:49:20;93028.98;;;14.16;39.83
43553;BME280;29153;42.696;23.218;2023-02-26T06:51:48;93028.98;;;14.16;39.83
43553;BME280;29153;42.696;23.218;2023-02-26T06:54:15;93041.29;;;14.26;39.43
43553;BME280;29153;42.696;23.218;2023-02-26T06:56:43;93033.31;;;14.32;38.56
43553;BME280;29153;42.696;23.218;2023-02-26T06:59:10;93028.23;;;14.39;38.34
43553;BME280;29153;42.696;23.218;2023-02-26T07:01:38;93023.56;;;14.42;39.19
43553;BME280;29153;42.696;23.218;2023-02-26T07:04:05;93034.56;;;14.53;38.36
43553;BME280;29153;42.696;23.218;2023-02-26T07:06:34;93034.56;;;14.53;38.36
43553;BME280;29153;42.696;23.218;2023-02-26T07:09:03;93021.55;;;14.64;37.83
43553;BME280;29153;42.696;23.218;2023-02-26T07:11:31;93042.55;;;14.71;37.83
43553;BME280;29153;42.696;23.218;2023-02-26T07:13:58;93036.00;;;14.75;37.76
43553;BME280;29153;42.696;23.218;2023-02-26T07:16:26;93040.88;;;14.79;38.51
43553;BME280;29153;42.696;23.218;2023-02-26T07:18:54;93065.53;;;14.88;37.96
43553;BME280;29153;42.696;23.218;2023-02-26T07:21:21;93042.94;;;14.97;36.97
43553;BME280;29153;42.696;23.218;2023-02-26T07:23:49;93051.72;;;15.10;37.60
43553;BME280;29153;42.696;23.218;2023-02-26T07:26:16;93046.22;;;15.25;36.99
43553;BME280;29153;42.696;23.218;2023-02-26T07:28:44;93052.17;;;15.52;37.69
43553;BME280;29153;42.696;23.218;2023-02-26T07:31:11;93052.17;;;15.52;37.69
43553;BME280;29153;42.696;23.218;2023-02-26T07:33:39;93038.95;;;15.43;37.15
43553;BME280;29153;42.696;23.218;2023-02-26T07:36:06;93043.16;;;15.51;37.11
43553;BME280;29153;42.696;23.218;2023-02-26T07:38:34;93070.52;;;15.41;36.33
43553;BME280;29153;42.696;23.218;2023-02-26T07:41:01;93043.70;;;15.56;37.59
43553;BME280;29153;42.696;23.218;2023-02-26T07:43:29;93047.11;;;15.63;37.18
43553;BME280;29153;42.696;23.218;2023-02-26T07:45:56;93047.11;;;15.63;37.18
43553;BME280;29153;42.696;23.218;2023-02-26T07:48:24;93070.21;;;15.71;36.83
43553;BME280;29153;42.696;23.218;2023-02-26T07:50:52;93070.21;;;15.71;36.83
43553;BME280;29153;42.696;23.218;2023-02-26T07:53:21;93038.40;;;15.72;37.21
43553;BME280;29153;42.696;23.218;2023-02-26T07:55:48;93050.27;;;15.80;36.97
43553;BME280;29153;42.696;23.218;2023-02-26T07:58:16;93062.28;;;16.02;37.07
43553;BME280;29153;42.696;23.218;2023-02-26T08:00:44;93062.58;;;15.91;36.35
43553;BME280;29153;42.696;23.218;2023-02-26T08:03:12;93064.00;;;15.94;36.24
43553;BME280;29153;42.696;23.218;2023-02-26T08:05:40;93061.59;;;16.05;36.41
43553;BME280;29153;42.696;23.218;2023-02-26T08:08:08;93060.62;;;16.19;35.83
43553;BME280;29153;42.696;23.218;2023-02-26T08:10:37;93048.58;;;16.25;35.76
43553;BME280;29153;42.696;23.218;2023-02-26T08:13:07;93036.27;;;16.30;35.83
43553;BME280;29153;42.696;23.218;2023-02-26T08:15:34;93064.52;;;16.37;35.93
43553;BME280;29153;42.696;23.218;2023-02-26T08:18:02;93033.82;;;16.31;35.40
43553;BME280;29153;42.696;23.218;2023-02-26T08:20:30;93044.03;;;16.20;36.18
43553;BME280;29153;42.696;23.218;2023-02-26T08:22:57;93044.03;;;16.20;36.18
43553;BME280;29153;42.696;23.218;2023-02-26T08:25:25;93056.12;;;16.29;36.40
43553;BME280;29153;42.696;23.218;2023-02-26T08:27:52;93040.59;;;16.19;35.84
43553;BME280;29153;42.696;23.218;2023-02-26T08:30:20;93064.46;;;16.12;35.87
43553;BME280;29153;42.696;23.218;2023-02-26T08:32:48;93065.83;;;16.22;35.52
43553;BME280;29153;42.696;23.218;2023-02-26T08:35:15;93043.98;;;16.26;35.30
43553;BME280;29153;42.696;23.218;2023-02-26T08:37:43;93043.98;;;16.26;35.30
43553;BME280;29153;42.696;23.218;2023-02-26T08:40:10;93048.05;;;16.35;36.54
43553;BME280;29153;42.696;23.218;2023-02-26T08:42:38;93057.48;;;16.39;35.46
43553;BME280;29153;42.696;23.218;2023-02-26T08:45:06;93070.78;;;16.51;35.46
43553;BME280;29153;42.696;23.218;2023-02-26T08:47:33;93063.73;;;16.53;35.38
43553;BME280;29153;42.696;23.218;2023-02-26T08:50:04;93073.55;;;16.70;35.59
43553;BME280;29153;42.696;23.218;2023-02-26T08:52:32;93056.11;;;16.45;34.51
43553;BME280;29153;42.696;23.218;2023-02-26T08:55:00;93085.98;;;16.57;34.83
43553;BME280;29153;42.696;23.218;2023-02-26T08:57:27;93063.51;;;16.58;34.86
43553;BME280;29153;42.696;23.218;2023-02-26T08:59:54;93074.11;;;16.70;34.31
43553;BME280;29153;42.696;23.218;2023-02-26T09:02:22;93081.71;;;16.68;34.02
43553;BME280;29153;42.696;23.218;2023-02-26T09:04:49;93066.81;;;16.61;34.61
43553;BME280;29153;42.696;23.218;2023-02-26T09:07:17;93085.02;;;16.71;34.29
43553;BME280;29153;42.696;23.218;2023-02-26T09:09:44;93092.53;;;16.81;35.46
43553;BME280;29153;42.696;23.218;2023-02-26T09:12:13;93083.47;;;16.95;35.10
43553;BME280;29153;42.696;23.218;2023-02-26T09:14:42;93084.92;;;17.08;35.51
43553;BME280;29153;42.696;23.218;2023-02-26T09:17:09;93091.86;;;17.28;33.80
43553;BME280;29153;42.696;23.218;2023-02-26T09:19:37;93072.64;;;17.23;33.48
43553;BME280;29153;42.696;23.218;2023-02-26T09:22:06;93072.95;;;17.56;34.35
43553;BME280;29153;42.696;23.218;2023-02-26T09:24:34;93073.41;;;17.78;33.22
43553;BME280;29153;42.696;23.218;2023-02-26T09:27:01;93079.17;;;17.99;32.50
43553;BME280;29153;42.696;23.218;2023-02-26T09:29:29;93071.73;;;18.31;32.47
43553;BME280;29153;42.696;23.218;2023-02-26T09:31:56;93076.71;;;18.32;31.40
43553;BME280;29153;42.696;23.218;2023-02-26T09:34:24;93099.08;;;18.40;31.25
43553;BME280;29153;42.696;23.218;2023-02-26T09:36:51;93088.02;;;18.64;30.57
43553;BME280;29153;42.696;23.218;2023-02-26T09:39:18;93084.39;;;18.89;30.75
43553;BME280;29153;42.696;23.218;2023-02-26T09:41:54;93082.50;;;19.16;31.01
43553;BME280;29153;42.696;23.218;2023-02-26T09:44:25;93076.19;;;19.18;30.70
43553;BME280;29153;42.696;23.218;2023-02-26T09:46:57;93090.17;;;19.04;30.96
43553;BME280;29153;42.696;23.218;2023-02-26T09:52:30;93093.87;;;18.83;30.00
43553;BME280;29153;42.696;23.218;2023-02-26T09:55:16;93088.76;;;18.42;30.30
43553;BME280;29153;42.696;23.218;2023-02-26T09:57:45;93085.80;;;18.56;31.16
43553;BME280;29153;42.696;23.218;2023-02-26T10:08:17;93111.11;;;18.59;30.95
43553;BME280;29153;42.696;23.218;2023-02-26T10:11:08;93095.91;;;18.67;31.15
43553;BME280;29153;42.696;23.218;2023-02-26T10:13:49;93107.88;;;18.40;31.23
43553;BME280;29153;42.696;23.218;2023-02-26T10:16:18;93117.59;;;18.48;32.24
43553;BME280;29153;42.696;23.218;2023-02-26T10:18:53;93111.09;;;18.69;32.11
43553;BME280;29153;42.696;23.218;2023-02-26T10:21:36;93123.81;;;18.85;32.46
43553;BME280;29153;42.696;23.218;2023-02-26T10:24:13;93109.70;;;18.65;32.03
43553;BME280;29153;42.696;23.218;2023-02-26T10:26:43;93091.03;;;18.40;32.36
43553;BME280;29153;42.696;23.218;2023-02-26T10:29:36;93110.14;;;18.48;32.73
43553;BME280;29153;42.696;23.218;2023-02-26T10:32:49;93103.19;;;18.24;31.85
43553;BME280;29153;42.696;23.218;2023-02-26T10:40:13;93070.34;;;18.40;33.80
43553;BME280;29153;42.696;23.218;2023-02-26T10:51:20;93071.58;;;18.24;33.38
43553;BME280;29153;42.696;23.218;2023-02-26T10:53:58;93067.73;;;18.11;33.94
43553;BME280;29153;42.696;23.218;2023-02-26T10:56:31;93049.63;;;18.05;34.31
43553;BME280;29153;42.696;23.218;2023-02-26T10:58:59;93071.79;;;17.83;34.22
43553;BME280;29153;42.696;23.218;2023-02-26T11:01:28;93059.56;;;17.56;35.05
43553;BME280;29153;42.696;23.218;2023-02-26T11:04:06;93062.24;;;17.56;35.12
43553;BME280;29153;42.696;23.218;2023-02-26T11:06:33;93033.55;;;17.38;34.64
43553;BME280;29153;42.696;23.218;2023-02-26T11:09:12;93039.91;;;17.49;34.91
43553;BME280;29153;42.696;23.218;2023-02-26T11:11:45;93027.86;;;17.39;34.15
43553;BME280;29153;42.696;23.218;2023-02-26T11:14:14;93018.56;;;17.23;34.53
43553;BME280;29153;42.696;23.218;2023-02-26T11:16:53;93017.71;;;17.19;34.59
43553;BME280;29153;42.696;23.218;2023-02-26T11:19:34;93016.64;;;17.14;35.37
43553;BME280;29153;42.696;23.218;2023-02-26T11:22:02;93010.23;;;17.09;36.27
43553;BME280;29153;42.696;23.218;2023-02-26T11:24:48;93019.09;;;16.94;35.79
43553;BME280;29153;42.696;23.218;2023-02-26T11:27:24;93010.47;;;16.95;36.40
43553;BME280;29153;42.696;23.218;2023-02-26T11:29:56;93022.00;;;16.79;36.66
43553;BME280;29153;42.696;23.218;2023-02-26T11:32:33;93013.16;;;16.85;36.65
43553;BME280;29153;42.696;23.218;2023-02-26T11:35:01;93012.70;;;16.83;37.02
43553;BME280;29153;42.696;23.218;2023-02-26T11:37:30;93006.55;;;16.73;37.07
43553;BME280;29153;42.696;23.218;2023-02-26T11:40:05;92997.00;;;16.72;37.38
43553;BME280;29153;42.696;23.218;2023-02-26T11:42:37;93000.02;;;16.70;37.35
43553;BME280;29153;42.696;23.218;2023-02-26T11:45:06;92998.83;;;16.68;37.76
43553;BME280;29153;42.696;23.218;2023-02-26T11:47:36;93013.09;;;16.66;38.94
43553;BME280;29153;42.696;23.218;2023-02-26T11:50:09;93029.77;;;16.53;39.16
43553;BME280;29153;42.696;23.218;2023-02-26T11:52:53;93006.52;;;16.48;39.04
43553;BME280;29153;42.696;23.218;2023-02-26T11:55:20;93032.31;;;16.40;39.42
43553;BME280;29153;42.696;23.218;2023-02-26T11:57:53;93014.95;;;16.24;40.40
43553;BME280;29153;42.696;23.218;2023-02-26T12:02:55;93019.23;;;15.82;43.16
43553;BME280;29153;42.696;23.218;2023-02-26T12:05:22;93019.23;;;15.82;43.16
43553;BME280;29153;42.696;23.218;2023-02-26T12:07:49;93052.95;;;15.96;43.32
43553;BME280;29153;42.696;23.218;2023-02-26T12:10:21;93068.16;;;16.08;43.88
43553;BME280;29153;42.696;23.218;2023-02-26T12:13:06;93068.16;;;16.08;43.88
43553;BME280;29153;42.696;23.218;2023-02-26T12:15:41;93083.64;;;16.24;43.54
43553;BME280;29153;42.696;23.218;2023-02-26T12:18:28;93083.64;;;16.24;43.54
43553;BME280;29153;42.696;23.218;2023-02-26T12:21:14;93086.17;;;16.26;42.57
43553;BME280;29153;42.696;23.218;2023-02-26T12:26:39;93089.32;;;16.22;42.41
43553;BME280;29153;42.696;23.218;2023-02-26T12:34:35;93078.84;;;16.08;39.53
43553;BME280;29153;42.696;23.218;2023-02-26T12:37:22;93085.77;;;16.03;38.59
43553;BME280;29153;42.696;23.218;2023-02-26T12:40:04;93077.84;;;16.06;39.24
43553;BME280;29153;42.696;23.218;2023-02-26T12:45:48;93101.71;;;16.36;38.38
43553;BME280;29153;42.696;23.218;2023-02-26T12:51:19;93099.04;;;16.36;37.74
43553;BME280;29153;42.696;23.218;2023-02-26T12:53:48;93123.07;;;16.43;37.77
43553;BME280;29153;42.696;23.218;2023-02-26T13:07:15;93149.44;;;16.44;38.36
43553;BME280;29153;42.696;23.218;2023-02-26T13:12:19;93161.28;;;16.15;39.71
43553;BME280;29153;42.696;23.218;2023-02-26T13:20:25;93172.20;;;16.10;40.55
43553;BME280;29153;42.696;23.218;2023-02-26T13:23:02;93145.25;;;16.15;40.78
43553;BME280;29153;42.696;23.218;2023-02-26T13:28:37;93168.38;;;16.17;41.71
43553;BME280;29153;42.696;23.218;2023-02-26T13:30:49;93141.54;;;15.98;41.63
43553;BME280;29153;42.696;23.218;2023-02-26T13:33:24;93146.96;;;16.08;41.59
43553;BME280;29153;42.696;23.218;2023-02-26T13:35:49;93157.75;;;16.05;42.15
43553;BME280;29153;42.696;23.218;2023-02-26T13:38:37;93135.67;;;16.14;42.24
43553;BME280;29153;42.696;23.218;2023-02-26T13:40:59;93151.75;;;16.08;42.28
43553;BME280;29153;42.696;23.218;2023-02-26T13:51:56;93137.40;;;16.01;42.82
43553;BME280;29153;42.696;23.218;2023-02-26T13:54:41;93133.90;;;15.90;42.24
43553;BME280;29153;42.696;23.218;2023-02-26T14:00:06;93126.86;;;15.92;41.58
43553;BME280;29153;42.696;23.218;2023-02-26T14:02:50;93111.53;;;15.89;42.13
43553;BME280;29153;42.696;23.218;2023-02-26T14:05:35;93112.32;;;15.83;41.51
43553;BME280;29153;42.696;23.218;2023-02-26T14:10:54;93123.55;;;15.89;41.60
43553;BME280;29153;42.696;23.218;2023-02-26T14:13:29;93131.38;;;15.76;42.25
43553;BME280;29153;42.696;23.218;2023-02-26T14:24:00;93131.66;;;15.40;43.50
43553;BME280;29153;42.696;23.218;2023-02-26T14:26:31;93131.66;;;15.40;43.50
43553;BME280;29153;42.696;23.218;2023-02-26T14:29:11;93138.60;;;15.17;44.62
43553;BME280;29153;42.696;23.218;2023-02-26T14:31:54;93153.38;;;15.02;45.09
43553;BME280;29153;42.696;23.218;2023-02-26T14:34:24;93153.38;;;15.02;45.09
43553;BME280;29153;42.696;23.218;2023-02-26T14:36:54;93156.73;;;15.06;45.27
43553;BME280;29153;42.696;23.218;2023-02-26T14:39:40;93159.28;;;14.96;46.32
43553;BME280;29153;42.696;23.218;2023-02-26T14:42:20;93160.83;;;14.91;46.42
43553;BME280;29153;42.696;23.218;2023-02-26T14:44:50;93166.61;;;14.87;46.38
43553;BME280;29153;42.696;23.218;2023-02-26T14:47:19;93165.83;;;14.74;47.36
43553;BME280;29153;42.696;23.218;2023-02-26T14:49:47;93173.26;;;14.63;47.79
43553;BME280;29153;42.696;23.218;2023-02-26T14:52:37;93173.58;;;14.61;47.94
43553;BME280;29153;42.696;23.218;2023-02-26T14:55:10;93183.12;;;14.50;48.49
43553;BME280;29153;42.696;23.218;2023-02-26T14:57:51;93186.66;;;14.48;49.19
43553;BME280;29153;42.696;23.218;2023-02-26T15:00:36;93192.50;;;14.35;49.52
43553;BME280;29153;42.696;23.218;2023-02-26T15:06:18;93203.88;;;14.24;50.07
43553;BME280;29153;42.696;23.218;2023-02-26T15:19:53;93191.61;;;13.84;52.57
43553;BME280;29153;42.696;23.218;2023-02-26T15:24:57;93200.39;;;13.69;52.82
43553;BME280;29153;42.696;23.218;2023-02-26T15:27:29;93205.23;;;13.61;52.98